Time;durP1;ratioP1;P1;durP2;ratioP2;P2;SDS_P1;SDS_P2;PMS_P1;PMS_P2;Temp;Humidity;BMP_temperature;BMP_pressure;BME280_temperature;BME280_humidity;BME280_pressure;Samples;Min_cycle;Max_cycle;Signal;HPM_P1;HPM_P2
2021/05/03 00:01:32;;;;;;;13.93;6.97;;;;;;;4.97;92.31;100294.09;3446709;84;33264;-85
2021/05/03 00:06:32;;;;;;;14.30;6.67;;;;;;;4.97;92.29;100289.41;3440760;84;98540;-85
2021/05/03 00:11:33;;;;;;;20.70;8.93;;;;;;;4.95;92.21;100290.89;3437779;84;33049;-85
2021/05/03 00:16:34;;;;;;;17.57;7.53;;;;;;;4.98;92.20;100293.76;3435504;84;98909;-86
2021/05/03 00:21:35;;;;;;;13.90;6.53;;;;;;;4.98;92.21;100297.84;3449968;84;33018;-86
2021/05/03 00:26:36;;;;;;;13.50;6.30;;;;;;;4.95;92.28;100294.43;3442812;84;98584;-85
2021/05/03 00:31:37;;;;;;;13.07;6.57;;;;;;;4.92;92.36;100298.41;3429837;85;32523;-87
2021/05/03 00:36:37;;;;;;;15.70;6.47;;;;;;;4.91;92.54;100296.24;3404280;85;98904;-86
2021/05/03 00:41:38;;;;;;;12.13;5.93;;;;;;;4.95;92.55;100299.08;3414950;85;31850;-86
2021/05/03 00:46:40;;;;;;;13.23;5.47;;;;;;;4.97;92.58;100306.36;3406278;85;98276;-87
2021/05/03 00:51:40;;;;;;;14.50;7.00;;;;;;;5.01;92.58;100304.52;3417175;86;31827;-86
2021/05/03 00:56:41;;;;;;;12.77;6.53;;;;;;;5.00;92.53;100309.20;3405429;84;98901;-86
2021/05/03 01:01:42;;;;;;;14.87;6.43;;;;;;;4.99;92.59;100315.80;3410669;86;32203;-85
2021/05/03 01:06:43;;;;;;;12.83;7.13;;;;;;;4.99;92.59;100315.80;3408728;85;98333;-85
2021/05/03 01:11:44;;;;;;;12.97;5.90;;;;;;;5.06;92.50;100318.73;3409719;86;32364;-85
2021/05/03 01:16:45;;;;;;;12.20;5.37;;;;;;;5.08;92.38;100317.81;3408272;85;98418;-85
2021/05/03 01:21:46;;;;;;;13.10;5.87;;;;;;;5.09;92.38;100309.88;3414396;85;30701;-84
2021/05/03 01:26:47;;;;;;;11.00;5.53;;;;;;;5.09;92.40;100324.87;3401738;85;98512;-84
2021/05/03 01:31:50;;;;;;;12.63;6.53;;;;;;;5.10;92.36;100321.01;3417099;85;35152;-85
2021/05/03 01:36:50;;;;;;;15.47;6.93;;;;;;;5.07;92.46;100324.41;3412819;84;98911;-84
2021/05/03 01:41:51;;;;;;;12.30;5.07;;;;;;;5.04;92.43;100329.20;3417693;85;35642;-84
2021/05/03 01:46:52;;;;;;;13.13;6.40;;;;;;;5.00;92.52;100328.84;3408993;83;98579;-84
2021/05/03 01:51:53;;;;;;;18.57;7.67;;;;;;;5.00;92.56;100324.75;3417872;85;35140;-84
2021/05/03 01:56:54;;;;;;;14.60;6.30;;;;;;;5.02;92.54;100323.86;3398432;85;98496;-85
2021/05/03 02:01:55;;;;;;;11.33;5.15;;;;;;;5.00;92.48;100324.20;3423009;85;35387;-83
2021/05/03 02:06:55;;;;;;;10.07;4.60;;;;;;;5.00;92.76;100330.21;3420449;85;98198;-84
2021/05/03 02:11:56;;;;;;;11.25;4.53;;;;;;;4.95;92.57;100335.33;3427724;85;35029;-84
2021/05/03 02:16:57;;;;;;;11.53;4.70;;;;;;;4.95;92.61;100334.53;3419999;85;98811;-84
2021/05/03 02:21:58;;;;;;;11.77;5.33;;;;;;;4.97;92.61;100338.50;3428711;85;32767;-84
2021/05/03 02:26:58;;;;;;;9.03;3.80;;;;;;;4.99;92.64;100341.70;3420237;85;98577;-84
2021/05/03 02:31:59;;;;;;;10.40;4.87;;;;;;;4.97;92.72;100341.23;3420298;85;32726;-83
2021/05/03 02:37:00;;;;;;;12.03;5.17;;;;;;;4.93;92.76;100344.44;3406936;85;98938;-84
2021/05/03 02:42:00;;;;;;;9.07;4.30;;;;;;;4.90;92.93;100342.94;3416529;85;33093;-82
2021/05/03 02:47:01;;;;;;;11.50;4.47;;;;;;;4.84;93.00;100354.65;3410585;85;98050;-82
2021/05/03 02:52:03;;;;;;;10.30;4.47;;;;;;;4.82;93.07;100356.94;3463778;84;27471;-85
2021/05/03 02:57:04;;;;;;;8.90;3.90;;;;;;;4.79;93.07;100354.88;3455409;84;98486;-83
2021/05/03 03:02:05;;;;;;;8.30;3.90;;;;;;;4.83;93.25;100363.16;3461060;84;26603;-82
2021/05/03 03:07:06;;;;;;;10.53;4.43;;;;;;;4.80;93.20;100363.86;3461923;83;98122;-82
2021/05/03 03:12:10;;;;;;;8.60;3.50;;;;;;;4.80;93.18;100370.09;3455727;84;25967;-82
2021/05/03 03:17:10;;;;;;;8.33;3.95;;;;;;;4.78;93.21;100381.91;3459081;83;98669;-82
2021/05/03 03:22:12;;;;;;;7.67;4.13;;;;;;;4.79;93.32;100388.14;3454509;83;26498;-83
2021/05/03 03:27:13;;;;;;;8.87;4.00;;;;;;;4.80;93.34;100387.03;3457084;84;98402;-82
2021/05/03 03:32:14;;;;;;;7.57;3.67;;;;;;;4.79;93.41;100395.77;3458536;84;26915;-82
2021/05/03 03:37:14;;;;;;;7.67;4.00;;;;;;;4.82;93.47;100397.02;3450142;83;98375;-84
2021/05/03 03:42:15;;;;;;;10.63;4.20;;;;;;;4.83;93.60;100402.14;3417690;85;26413;-83
2021/05/03 03:47:16;;;;;;;11.77;5.53;;;;;;;4.86;93.51;100401.45;3413155;85;98494;-83
2021/05/03 03:52:17;;;;;;;9.03;3.80;;;;;;;4.87;93.60;100405.79;3424680;85;26823;-82
2021/05/03 03:57:18;;;;;;;8.45;3.30;;;;;;;4.90;93.62;100411.11;3403278;85;98043;-82
2021/05/03 04:02:19;;;;;;;10.13;4.00;;;;;;;4.93;93.58;100410.44;3407819;85;32967;-82
2021/05/03 04:07:29;;;;;;;8.17;3.63;;;;;;;4.97;93.86;100416.23;3403441;85;98237;-82
2021/05/03 04:28:20;;;;;;;8.80;3.87;;;;;;;5.09;94.08;100441.36;3413959;85;97991;-82
2021/05/03 04:33:20;;;;;;;7.90;3.90;;;;;;;5.12;94.13;100448.88;3435687;84;33011;-83
2021/05/03 04:38:21;;;;;;;7.27;3.70;;;;;;;5.15;94.24;100448.99;3442213;83;98678;-82
2021/05/03 04:43:22;;;;;;;9.13;4.40;;;;;;;5.24;94.18;100461.94;3446401;84;33227;-83
2021/05/03 04:48:23;;;;;;;10.70;4.27;;;;;;;5.31;94.28;100459.45;3440638;84;98062;-82
2021/05/03 04:53:24;;;;;;;7.80;4.30;;;;;;;5.38;94.13;100461.05;3441277;84;31048;-83
2021/05/03 04:58:25;;;;;;;8.63;3.67;;;;;;;5.43;94.04;100467.64;3442083;84;98334;-82
2021/05/03 05:03:26;;;;;;;7.13;3.70;;;;;;;5.45;93.70;100465.35;3447366;84;31829;-82
2021/05/03 05:08:26;;;;;;;7.03;3.57;;;;;;;5.49;93.59;100471.73;3443075;83;98355;-82
2021/05/03 05:13:27;;;;;;;9.60;4.00;;;;;;;5.50;93.51;100473.31;3442770;84;31685;-82
2021/05/03 05:18:28;;;;;;;8.40;4.00;;;;;;;5.55;93.37;100475.01;3439241;84;98298;-82
2021/05/03 05:23:29;;;;;;;8.80;4.10;;;;;;;5.58;93.19;100481.97;3446662;84;32761;-82
2021/05/03 05:28:30;;;;;;;8.13;4.07;;;;;;;5.61;93.34;100487.28;3442691;84;98045;-83
2021/05/03 05:33:30;;;;;;;8.23;3.90;;;;;;;5.62;93.20;100499.83;3437152;84;31797;-82
2021/05/03 05:38:31;;;;;;;9.10;3.93;;;;;;;5.61;93.17;100499.57;3424918;85;98376;-82
2021/05/03 05:43:32;;;;;;;9.07;4.07;;;;;;;5.71;93.27;100507.30;3431539;86;27964;-82
2021/05/03 05:48:33;;;;;;;10.23;5.57;;;;;;;5.77;93.20;100508.11;3415672;85;98200;-83
2021/05/03 05:53:33;;;;;;;11.73;5.50;;;;;;;5.82;92.96;100513.92;3405990;86;35079;-82
2021/05/03 05:58:34;;;;;;;10.23;5.10;;;;;;;5.80;92.92;100519.75;3428264;85;98278;-84
2021/05/03 06:03:35;;;;;;;9.30;4.57;;;;;;;5.82;92.96;100526.22;3456208;85;34960;-83
2021/05/03 06:08:36;;;;;;;8.57;4.10;;;;;;;5.84;92.88;100526.69;3453190;84;98348;-83
2021/05/03 06:13:36;;;;;;;7.23;3.13;;;;;;;5.86;92.48;100529.30;3462218;85;35160;-83
2021/05/03 06:18:37;;;;;;;6.93;3.20;;;;;;;5.93;92.58;100540.44;3447578;84;98416;-81
2021/05/03 06:23:38;;;;;;;5.58;2.67;;;;;;;6.03;92.23;100540.53;3449111;84;35354;-84
2021/05/03 06:28:38;;;;;;;6.57;3.00;;;;;;;6.02;91.93;100553.42;3454840;84;98382;-84
2021/05/03 06:33:39;;;;;;;10.30;4.20;;;;;;;6.02;91.66;100553.42;3461618;84;33307;-83
2021/05/03 06:38:40;;;;;;;8.77;3.63;;;;;;;6.02;91.22;100556.70;3453739;84;98315;-83
2021/05/03 06:43:41;;;;;;;8.33;3.33;;;;;;;6.06;90.89;100552.16;3467306;85;32631;-83
2021/05/03 06:48:42;;;;;;;8.47;2.80;;;;;;;6.07;90.88;100566.03;3459143;84;98330;-84
2021/05/03 06:53:42;;;;;;;15.33;5.27;;;;;;;6.05;90.93;100565.59;3465562;84;32718;-82
2021/05/03 06:58:43;;;;;;;6.05;1.82;;;;;;;6.06;90.24;100574.02;3457991;85;98530;-83
2021/05/03 07:03:44;;;;;;;9.27;2.77;;;;;;;6.06;90.35;100585.72;3456140;84;27452;-83
2021/05/03 07:08:45;;;;;;;10.50;3.30;;;;;;;6.10;90.72;100588.00;3442587;85;98491;-82
2021/05/03 07:13:46;;;;;;;17.07;5.07;;;;;;;6.19;90.62;100595.52;3440012;85;26328;-82
2021/05/03 07:18:46;;;;;;;8.77;3.40;;;;;;;6.16;89.90;100596.19;3428601;85;98400;-83
2021/05/03 07:23:49;;;;;;;9.17;3.00;;;;;;;6.09;89.84;100598.71;3408960;85;26322;-82
2021/05/03 07:28:50;;;;;;;9.60;3.40;;;;;;;6.11;90.21;100603.25;3403057;85;98026;-82
2021/05/03 07:33:51;;;;;;;8.23;2.90;;;;;;;6.12;90.12;100606.79;3410672;85;26325;-84
2021/05/03 07:38:52;;;;;;;5.90;2.65;;;;;;;6.13;90.18;100607.82;3385826;85;98920;-83
2021/05/03 07:43:53;;;;;;;5.12;2.05;;;;;;;6.08;89.63;100609.42;3405319;85;26098;-83
2021/05/03 07:48:56;;;;;;;4.97;2.47;;;;;;;6.08;89.52;100616.80;3415749;84;97993;-83
2021/05/03 07:53:59;;;;;;;6.20;2.40;;;;;;;6.07;89.93;100613.30;3401235;85;26419;-83
2021/05/03 07:59:00;;;;;;;5.90;2.70;;;;;;;6.10;89.82;100615.88;3403208;85;98346;-83
2021/05/03 08:04:01;;;;;;;6.73;3.67;;;;;;;6.08;89.74;100618.17;3406242;86;26328;-83
2021/05/03 08:09:05;;;;;;;7.00;4.50;;;;;;;6.16;89.85;100630.94;3406757;85;98289;-83
2021/05/03 08:14:06;;;;;;;7.33;4.20;;;;;;;6.23;90.03;100631.15;3412225;85;27047;-86
2021/05/03 08:19:07;;;;;;;6.53;3.80;;;;;;;6.31;89.75;100643.88;3366069;85;98322;-84
2021/05/03 08:24:08;;;;;;;5.60;3.50;;;;;;;6.38;89.92;100648.23;3427710;85;25971;-83
2021/05/03 08:29:09;;;;;;;5.33;3.20;;;;;;;6.46;89.65;100659.59;3398527;85;98415;-83
2021/05/03 08:34:09;;;;;;;5.47;3.10;;;;;;;6.51;89.71;100662.09;3423092;85;25976;-84
2021/05/03 08:39:11;;;;;;;6.40;2.80;;;;;;;6.59;89.52;100671.53;3426449;84;98138;-82
2021/05/03 08:44:11;;;;;;;5.10;2.73;;;;;;;6.64;89.26;100668.56;3397368;85;26058;-82
2021/05/03 08:49:18;;;;;;;5.37;2.90;;;;;;;6.65;89.01;100668.78;3421212;85;98503;-82
2021/05/03 08:59:37;;;;;;;6.20;3.90;;;;;;;6.73;88.43;100663.77;3403616;82;97915;-83
2021/05/03 09:04:38;;;;;;;7.47;4.13;;;;;;;6.80;88.48;100662.61;3423072;85;28257;-83
2021/05/03 09:09:46;;;;;;;7.90;4.50;;;;;;;6.86;88.16;100657.11;3422797;84;97829;-84
2021/05/03 09:15:00;;;;;;;7.77;4.17;;;;;;;6.94;88.26;100658.94;3426728;85;28206;-86
2021/05/03 09:20:08;;;;;;;5.60;3.10;;;;;;;7.06;88.37;100661.63;3365409;85;97879;-84
2021/05/03 09:25:36;;;;;;;6.17;2.63;;;;;;;7.15;88.04;100654.63;3422748;85;27499;-84
2021/05/03 09:30:59;;;;;;;7.73;2.97;;;;;;;7.30;87.78;100656.03;3397521;86;98204;-84
2021/05/03 09:36:09;;;;;;;8.37;3.43;;;;;;;7.43;87.41;100654.04;3408547;85;98355;-84
2021/05/03 09:41:25;;;;;;;5.87;2.50;;;;;;;7.66;87.65;100659.96;3406681;86;27084;-86
2021/05/03 09:46:35;;;;;;;6.22;2.50;;;;;;;7.90;86.73;100656.27;3404159;86;98370;-86
2021/05/03 09:51:50;;;;;;;4.53;2.30;;;;;;;7.98;85.77;100654.72;3429127;84;28388;-86
2021/05/03 09:57:03;;;;;;;6.00;2.42;;;;;;;7.98;85.63;100659.39;3421570;84;97846;-84
2021/05/03 10:02:15;;;;;;;4.30;1.90;;;;;;;7.96;85.53;100670.70;3421590;84;26318;-86
2021/05/03 10:07:20;;;;;;;4.17;1.67;;;;;;;7.83;85.34;100667.03;3421962;84;98462;-85
2021/05/03 10:12:21;;;;;;;4.40;1.93;;;;;;;7.73;85.79;100668.36;3433151;86;27682;-85
2021/05/03 10:17:22;;;;;;;6.90;3.00;;;;;;;7.65;86.33;100674.00;3419605;85;98262;-86
2021/05/03 10:22:24;;;;;;;7.60;3.17;;;;;;;7.43;86.52;100670.47;3417625;84;26537;-85
2021/05/03 10:27:26;;;;;;;9.00;4.37;;;;;;;7.31;86.85;100669.16;3427214;86;98360;-87
2021/05/03 10:32:27;;;;;;;9.87;4.07;;;;;;;7.17;87.07;100664.09;3428387;86;55508;-86
2021/05/03 10:37:41;;;;;;;8.33;4.30;;;;;;;7.04;87.25;100665.26;3424220;84;98154;-85
2021/05/03 10:43:12;;;;;;;10.27;4.93;;;;;;;6.99;87.71;100670.97;3425670;85;27472;-87
2021/05/03 10:48:52;;;;;;;10.10;4.67;;;;;;;6.99;87.85;100670.20;3405560;84;98201;-87
2021/05/03 10:53:51;;;;;;;9.93;5.00;;;;;;;6.99;88.00;100672.34;3391106;86;26512;-86
2021/05/03 10:59:00;;;;;;;8.13;5.00;;;;;;;6.99;88.27;100684.66;3378622;86;98164;-86
2021/05/03 11:04:07;;;;;;;14.23;6.00;;;;;;;6.96;87.97;100675.79;3405606;86;27569;-87
2021/05/03 11:09:34;;;;;;;11.23;4.97;;;;;;;7.00;88.33;100679.98;3407040;84;98162;-86
2021/05/03 11:15:02;;;;;;;11.75;5.95;;;;;;;7.00;88.42;100679.44;3423189;85;27513;-87
2021/05/03 11:20:11;;;;;;;9.53;4.87;;;;;;;7.12;88.32;100669.00;3408581;83;98321;-89
2021/05/03 11:25:29;;;;;;;13.33;6.50;;;;;;;7.22;87.75;100673.98;3419626;85;26522;-87
2021/05/03 11:30:36;;;;;;;10.37;4.60;;;;;;;7.36;87.70;100663.44;3389989;85;98537;-87
2021/05/03 11:41:20;;;;;;;10.03;4.13;;;;;;;7.96;87.97;100652.11;3390679;85;98651;-88
2021/05/03 11:46:34;;;;;;;8.18;3.90;;;;;;;8.25;86.89;100663.45;3380337;86;98512;-88
2021/05/03 11:51:50;;;;;;;7.57;3.33;;;;;;;8.49;85.70;100652.81;3391266;85;27514;-85
2021/05/03 11:57:17;;;;;;;9.60;3.70;;;;;;;8.75;84.58;100647.53;3382212;85;98661;-86
2021/05/03 12:02:16;;;;;;;7.60;3.03;;;;;;;9.06;84.19;100639.95;3414470;85;26956;-87
2021/05/03 12:07:24;;;;;;;8.37;3.50;;;;;;;9.47;82.64;100642.52;3411034;83;98820;-90
2021/05/03 12:12:34;;;;;;;24.67;6.67;;;;;;;9.72;81.33;100642.41;3436837;84;27762;-84
2021/05/03 12:17:35;;;;;;;7.63;2.83;;;;;;;9.73;79.17;100638.49;3430209;84;98702;-86
2021/05/03 12:22:37;;;;;;;5.73;2.00;;;;;;;9.69;79.12;100643.13;3446177;84;26619;-85
2021/05/03 12:27:38;;;;;;;6.40;2.25;;;;;;;9.66;76.55;100647.39;3434028;84;98260;-86
2021/05/03 12:32:41;;;;;;;9.43;2.70;;;;;;;9.50;77.04;100645.36;3449171;82;26057;-87
2021/05/03 12:37:42;;;;;;;8.03;2.10;;;;;;;9.52;76.85;100649.09;3417294;84;98492;-86
2021/05/03 12:42:51;;;;;;;6.65;2.80;;;;;;;9.52;75.52;100641.66;3417096;86;25983;-84
2021/05/03 12:53:29;;;;;;;10.67;2.67;;;;;;;10.09;74.80;100622.25;3415976;86;26010;-87
2021/05/03 12:58:41;;;;;;;10.03;2.77;;;;;;;10.33;75.15;100621.86;3399956;85;98981;-84
2021/05/03 13:03:47;;;;;;;11.50;3.57;;;;;;;10.62;74.37;100623.03;3416928;86;27439;-84
2021/05/03 13:08:53;;;;;;;6.17;2.40;;;;;;;11.11;74.31;100629.19;3398416;86;99321;-85
2021/05/03 13:29:45;;;;;;;6.33;2.33;;;;;;;11.15;69.78;100679.61;3393063;86;98505;-85
2021/05/03 13:34:47;;;;;;;5.57;2.30;;;;;;;10.05;70.94;100695.67;3404908;85;28717;-83
2021/05/03 13:39:50;;;;;;;6.77;2.13;;;;;;;9.32;73.08;100693.65;3401892;85;97991;-84
2021/05/03 13:44:51;;;;;;;5.33;1.87;;;;;;;8.78;75.22;100698.96;3398200;86;27482;-84
2021/05/03 13:49:51;;;;;;;5.03;2.13;;;;;;;8.56;76.35;100683.95;3402818;85;98397;-85
2021/05/03 13:54:52;;;;;;;7.23;2.00;;;;;;;8.47;77.60;100666.91;3416865;86;26436;-84
2021/05/03 13:59:53;;;;;;;4.70;2.13;;;;;;;8.42;78.17;100667.18;3409565;86;98135;-83
2021/05/03 14:04:53;;;;;;;4.97;2.27;;;;;;;8.35;78.77;100658.77;3415931;86;25949;-85
2021/05/03 14:09:54;;;;;;;6.37;2.60;;;;;;;8.43;79.84;100654.24;3406991;86;98069;-85
2021/05/03 14:14:55;;;;;;;6.75;3.20;;;;;;;8.45;80.28;100648.62;3409880;86;25949;-87
2021/05/03 14:19:56;;;;;;;5.37;2.93;;;;;;;8.52;80.93;100636.46;3407506;85;98430;-86
2021/05/03 14:24:56;;;;;;;6.27;3.10;;;;;;;8.67;81.51;100629.33;3405357;85;33058;-86
2021/05/03 14:30:00;;;;;;;8.57;3.20;;;;;;;8.75;81.84;100639.30;3407844;85;98733;-87
2021/05/03 14:35:05;;;;;;;11.43;3.10;;;;;;;8.85;81.82;100631.30;3415428;85;33684;-86
2021/05/03 14:40:08;;;;;;;8.57;3.43;;;;;;;8.95;81.36;100623.84;3403680;83;98427;-85
2021/05/03 14:45:11;;;;;;;11.37;3.17;;;;;;;9.13;80.31;100618.15;3422016;85;33201;-87
2021/05/03 14:50:33;;;;;;;8.70;3.25;;;;;;;9.19;78.57;100612.58;3410100;85;98612;-87
2021/05/03 14:55:25;;;;;;;14.80;5.07;;;;;;;9.20;78.64;100614.16;3410625;85;33066;-87
2021/05/03 15:00:27;;;;;;;12.57;4.20;;;;;;;9.33;79.30;100620.30;3401930;85;98511;-86
2021/05/03 15:05:28;;;;;;;8.13;3.13;;;;;;;9.40;78.56;100619.05;3420769;85;32974;-88
2021/05/03 15:10:29;;;;;;;9.80;3.70;;;;;;;9.49;78.86;100612.75;3397502;84;98201;-86
2021/05/03 15:15:34;;;;;;;6.77;3.00;;;;;;;9.65;78.97;100611.46;3400119;86;32953;-87
2021/05/03 15:25:55;;;;;;;8.10;3.00;;;;;;;9.94;77.76;100592.13;3409152;85;33898;-88
2021/05/03 15:36:05;;;;;;;10.17;3.37;;;;;;;10.17;75.63;100597.84;3408347;85;102616;-86
2021/05/03 15:41:06;;;;;;;13.53;3.50;;;;;;;10.12;73.44;100589.09;3417218;86;32966;-85
2021/05/03 15:46:07;;;;;;;8.87;3.20;;;;;;;10.09;73.89;100585.13;3403598;85;98928;-86
2021/05/03 15:51:14;;;;;;;8.23;2.87;;;;;;;10.10;71.91;100579.06;3433171;84;33525;-86
2021/05/03 15:56:14;;;;;;;6.17;2.35;;;;;;;10.09;71.81;100582.38;3424939;84;98671;-86
2021/05/03 16:01:14;;;;;;;7.57;2.07;;;;;;;10.11;72.61;100571.02;3429148;84;33105;-86
2021/05/03 16:06:15;;;;;;;7.40;2.50;;;;;;;10.17;72.03;100562.66;3426432;85;98811;-85
2021/05/03 16:11:20;;;;;;;9.20;3.53;;;;;;;10.08;70.86;100558.80;3416997;85;33528;-86
2021/05/03 16:16:23;;;;;;;7.53;2.23;;;;;;;10.01;71.15;100555.92;3407462;85;98791;-90
2021/05/03 16:21:24;;;;;;;4.30;2.00;;;;;;;10.05;69.76;100561.50;3406093;85;34144;-86
2021/05/03 16:26:26;;;;;;;4.60;1.70;;;;;;;10.01;68.44;100557.86;3411496;85;98819;-85
2021/05/03 16:31:29;;;;;;;8.63;1.70;;;;;;;9.97;68.19;100559.19;3370316;86;33259;-87
2021/05/03 16:36:30;;;;;;;4.53;1.50;;;;;;;9.90;68.52;100568.70;3368226;84;98535;-86
2021/05/03 16:41:31;;;;;;;3.40;1.50;;;;;;;9.83;68.61;100559.55;3381896;85;33042;-85
2021/05/03 16:46:31;;;;;;;5.80;2.30;;;;;;;9.73;68.74;100556.84;3400195;85;98293;-85
2021/05/03 16:51:32;;;;;;;5.57;2.40;;;;;;;9.71;69.05;100561.90;3424838;86;32926;-84
2021/05/03 16:56:33;;;;;;;7.37;2.80;;;;;;;9.74;68.13;100554.88;3419194;85;98329;-83
2021/05/03 17:01:34;;;;;;;3.17;1.50;;;;;;;9.78;68.14;100551.61;3422816;85;32986;-83
2021/05/03 17:06:36;;;;;;;5.30;1.97;;;;;;;9.79;66.54;100552.63;3420001;83;98027;-84
2021/05/03 17:11:37;;;;;;;5.67;2.10;;;;;;;9.77;65.56;100557.67;3425996;85;33070;-83
2021/05/03 17:16:41;;;;;;;4.13;1.87;;;;;;;9.71;64.91;100573.48;3419524;85;98473;-84
2021/05/03 17:21:42;;;;;;;6.30;2.97;;;;;;;9.63;65.87;100568.45;3412923;85;33424;-85
2021/05/03 17:26:42;;;;;;;7.33;3.20;;;;;;;9.54;66.23;100569.87;3408928;85;98335;-85
2021/05/03 17:31:44;;;;;;;8.67;3.00;;;;;;;9.46;66.72;100578.56;3434402;86;34059;-85
2021/05/03 17:36:45;;;;;;;5.10;2.37;;;;;;;9.35;66.82;100559.72;3419471;85;98265;-84
2021/05/03 17:41:45;;;;;;;4.27;2.17;;;;;;;9.27;67.33;100559.36;3409458;85;32965;-83
2021/05/03 17:46:46;;;;;;;4.33;1.77;;;;;;;9.19;67.73;100557.66;3406342;86;98328;-83
2021/05/03 17:51:49;;;;;;;6.40;3.13;;;;;;;9.12;68.15;100558.10;3411837;86;33228;-83
2021/05/03 17:56:50;;;;;;;7.00;2.70;;;;;;;9.09;68.20;100559.63;3401146;86;98325;-86
2021/05/03 18:01:51;;;;;;;9.03;3.50;;;;;;;9.07;67.85;100570.75;3402909;86;33078;-83
2021/05/03 18:06:51;;;;;;;8.93;3.90;;;;;;;8.99;68.18;100564.33;3408923;85;98426;-84
2021/05/03 18:11:53;;;;;;;7.53;2.57;;;;;;;8.92;68.58;100565.56;3464700;84;32057;-84
2021/05/03 18:16:58;;;;;;;8.77;2.40;;;;;;;8.89;68.60;100573.73;3435939;85;98036;-84
2021/05/03 18:22:03;;;;;;;5.27;2.10;;;;;;;8.85;68.81;100578.35;3412971;86;26661;-83
2021/05/03 18:27:03;;;;;;;6.47;2.73;;;;;;;8.78;68.74;100585.86;3393060;86;98337;-84
2021/05/03 18:32:04;;;;;;;7.97;2.80;;;;;;;8.70;69.24;100582.77;3412223;86;32221;-82
2021/05/03 18:37:05;;;;;;;7.63;3.33;;;;;;;8.57;69.66;100580.52;3405719;85;98454;-82
2021/05/03 18:42:06;;;;;;;11.47;2.97;;;;;;;8.36;70.23;100574.56;3405671;85;32687;-83
2021/05/03 18:47:06;;;;;;;8.20;3.00;;;;;;;8.17;70.71;100575.84;3397046;85;98520;-83
2021/05/03 18:52:07;;;;;;;9.73;3.53;;;;;;;8.03;71.18;100574.97;3420818;85;32186;-84
2021/05/03 18:57:08;;;;;;;9.47;3.47;;;;;;;7.83;71.71;100572.50;3410568;84;98355;-83
2021/05/03 19:02:11;;;;;;;11.93;4.63;;;;;;;7.70;72.41;100575.91;3428684;85;31762;-82
2021/05/03 19:07:13;;;;;;;16.20;5.53;;;;;;;7.53;72.99;100573.52;3409593;85;98533;-83
2021/05/03 19:12:14;;;;;;;17.20;6.33;;;;;;;7.27;73.52;100581.47;3411657;85;31745;-83
2021/05/03 19:17:14;;;;;;;16.77;6.97;;;;;;;7.07;73.99;100573.46;3421977;84;98454;-83
2021/05/03 19:22:15;;;;;;;17.00;6.93;;;;;;;6.94;74.57;100580.95;3471653;83;31777;-84
2021/05/03 19:27:16;;;;;;;19.13;6.73;;;;;;;6.79;75.07;100573.48;3414937;84;98897;-83
2021/05/03 19:32:35;;;;;;;14.90;5.97;;;;;;;6.64;75.46;100571.48;3373970;86;30897;-83
2021/05/03 19:37:35;;;;;;;18.77;7.37;;;;;;;6.48;75.95;100562.42;3428278;83;98205;-82
2021/05/03 19:42:36;;;;;;;15.97;7.10;;;;;;;6.28;76.21;100566.69;3413750;85;35688;-84
2021/05/03 19:47:37;;;;;;;17.37;7.73;;;;;;;6.08;76.67;100558.06;3420414;84;98816;-84
2021/05/03 20:03:13;;;;;;;21.00;10.27;;;;;;;5.63;77.98;100558.16;3436694;84;34998;-82
2021/05/03 20:08:07;;;;;;;17.30;8.30;;;;;;;5.50;78.31;100556.56;3409110;83;99041;-83
2021/05/03 20:13:09;;;;;;;17.23;9.33;;;;;;;5.36;78.74;100556.08;3418447;85;35055;-83
2021/05/03 20:18:11;;;;;;;16.43;8.87;;;;;;;5.25;78.86;100559.02;3432211;84;98187;-83
2021/05/03 20:23:12;;;;;;;19.17;8.80;;;;;;;5.07;79.18;100567.17;3440873;84;35033;-83
2021/05/03 20:28:13;;;;;;;17.60;8.63;;;;;;;4.98;79.69;100555.57;3438635;84;101088;-82
2021/05/03 20:33:22;;;;;;;13.40;7.13;;;;;;;4.91;79.76;100566.79;3445193;84;35062;-82
2021/05/03 20:43:25;;;;;;;13.33;6.30;;;;;;;4.67;80.42;100570.21;3405505;84;25938;-81
2021/05/03 20:48:26;;;;;;;12.33;5.83;;;;;;;4.58;80.86;100573.56;3424417;84;98509;-82
2021/05/03 20:53:27;;;;;;;12.27;5.77;;;;;;;4.56;81.20;100569.58;3461450;85;35101;-82
2021/05/03 20:58:28;;;;;;;12.73;6.20;;;;;;;4.54;81.65;100560.95;3435995;84;98718;-84
2021/05/03 21:03:29;;;;;;;12.10;5.60;;;;;;;4.61;81.79;100559.29;3423475;85;34972;-83
2021/05/03 21:08:30;;;;;;;12.70;6.00;;;;;;;4.70;82.02;100558.63;3411488;85;98571;-84
2021/05/03 21:13:31;;;;;;;13.00;6.27;;;;;;;4.77;82.35;100552.08;3412423;85;35065;-83
2021/05/03 21:18:32;;;;;;;15.15;7.67;;;;;;;4.82;82.38;100548.34;3391769;85;98243;-81
2021/05/03 21:23:32;;;;;;;17.47;7.50;;;;;;;4.84;82.64;100550.16;3398526;85;35007;-82
2021/05/03 21:28:33;;;;;;;16.65;8.48;;;;;;;4.86;82.76;100545.19;3394910;85;98598;-82
2021/05/03 21:33:34;;;;;;;24.47;11.83;;;;;;;4.92;82.85;100537.02;3410015;86;32723;-83
2021/05/03 21:38:35;;;;;;;22.00;10.30;;;;;;;4.95;82.86;100541.78;3419320;84;98342;-82
2021/05/03 21:43:36;;;;;;;19.47;9.47;;;;;;;4.97;83.07;100545.77;3430739;84;32675;-82
2021/05/03 21:48:36;;;;;;;19.80;10.23;;;;;;;4.97;83.40;100539.54;3413388;84;98698;-82
2021/05/03 21:53:41;;;;;;;24.77;11.13;;;;;;;4.95;83.70;100531.69;3416543;85;32681;-81
2021/05/03 21:58:43;;;;;;;24.35;11.65;;;;;;;5.02;84.10;100537.96;3366732;85;98379;-82
2021/05/03 22:03:44;;;;;;;30.20;13.90;;;;;;;4.99;84.08;100546.25;3378990;85;30895;-82
2021/05/03 22:08:45;;;;;;;25.50;12.53;;;;;;;4.98;84.02;100531.58;3407332;84;99033;-82
2021/05/03 22:13:57;;;;;;;24.82;14.03;;;;;;;5.01;84.26;100533.61;3478342;83;32670;-82
2021/05/03 22:19:00;;;;;;;26.27;14.18;;;;;;;5.03;84.34;100531.37;3432788;84;99248;-81
2021/05/03 22:24:03;;;;;;;31.73;14.47;;;;;;;5.09;84.34;100516.38;3441213;84;33889;-83
2021/05/03 22:28:58;;;;;;;37.90;16.97;;;;;;;5.10;84.66;100511.95;3479658;83;98627;-82
2021/05/03 22:33:59;;;;;;;33.13;17.10;;;;;;;5.19;84.61;100518.09;3478921;83;32698;-83
2021/05/03 22:39:08;;;;;;;30.77;15.40;;;;;;;5.24;84.51;100504.81;3440998;83;98845;-83
2021/05/03 23:20:47;;;;;;;28.93;13.13;;;;;;;5.21;83.44;100470.81;3375355;85;97991;-83
2021/05/03 23:25:48;;;;;;;29.02;13.20;;;;;;;5.12;83.42;100466.02;3423487;84;32712;-82
2021/05/03 23:30:49;;;;;;;24.50;12.60;;;;;;;5.07;83.43;100462.73;3400586;85;98135;-82
2021/05/03 23:35:49;;;;;;;26.43;12.40;;;;;;;4.92;83.32;100462.02;3400151;85;32701;-83
2021/05/03 23:40:50;;;;;;;29.87;14.00;;;;;;;4.88;83.38;100454.28;3395859;85;98042;-83
2021/05/03 23:45:51;;;;;;;31.93;15.30;;;;;;;4.78;83.33;100443.81;3404878;86;32716;-83
2021/05/03 23:50:52;;;;;;;28.17;14.33;;;;;;;4.71;83.36;100438.94;3419710;84;98639;-83
2021/05/03 23:55:52;;;;;;;30.63;13.43;;;;;;;4.57;83.29;100427.53;3407844;85;27472;-83
